sensor_id;sensor_type;location;lat;lon;timestamp;pressure;altitude;pressure_sealevel;temperature;humidity
70198;BME280;57582;-34.876;138.628;2023-04-27T00:01:16;100782;;;20.36;69.58
70198;BME280;57582;-34.876;138.628;2023-04-27T00:04:16;100786;;;20.56;68.19
70198;BME280;57582;-34.876;138.628;2023-04-27T00:07:16;100790;;;20.70;65.84
70198;BME280;57582;-34.876;138.628;2023-04-27T00:10:16;100790;;;20.77;65.33
70198;BME280;57582;-34.876;138.628;2023-04-27T00:13:17;100786;;;20.98;64.68
70198;BME280;57582;-34.876;138.628;2023-04-27T00:16:17;100786;;;20.69;64.53
70198;BME280;57582;-34.876;138.628;2023-04-27T00:19:16;100789;;;20.63;64.46
70198;BME280;57582;-34.876;138.628;2023-04-27T00:22:16;100787;;;20.85;64.53
70198;BME280;57582;-34.876;138.628;2023-04-27T00:25:16;100790;;;20.86;64.10
70198;BME280;57582;-34.876;138.628;2023-04-27T00:28:16;100781;;;20.81;63.68
70198;BME280;57582;-34.876;138.628;2023-04-27T00:31:16;100782;;;20.72;62.72
70198;BME280;57582;-34.876;138.628;2023-04-27T00:34:16;100780;;;20.96;63.07
70198;BME280;57582;-34.876;138.628;2023-04-27T00:37:17;100776;;;21.01;63.09
70198;BME280;57582;-34.876;138.628;2023-04-27T00:40:18;100775;;;21.26;62.88
70198;BME280;57582;-34.876;138.628;2023-04-27T00:43:16;100780;;;21.39;61.38
70198;BME280;57582;-34.876;138.628;2023-04-27T00:46:16;100786;;;21.45;61.93
70198;BME280;57582;-34.876;138.628;2023-04-27T00:49:17;100787;;;21.55;60.79
70198;BME280;57582;-34.876;138.628;2023-04-27T00:52:17;100788;;;21.40;60.66
70198;BME280;57582;-34.876;138.628;2023-04-27T00:55:16;100795;;;21.58;59.75
70198;BME280;57582;-34.876;138.628;2023-04-27T00:58:16;100785;;;21.66;60.00
70198;BME280;57582;-34.876;138.628;2023-04-27T01:01:16;100792;;;21.87;59.25
70198;BME280;57582;-34.876;138.628;2023-04-27T01:04:17;100791;;;21.62;58.93
70198;BME280;57582;-34.876;138.628;2023-04-27T01:07:16;100795;;;21.74;59.52
70198;BME280;57582;-34.876;138.628;2023-04-27T01:10:16;100785;;;21.99;58.30
70198;BME280;57582;-34.876;138.628;2023-04-27T01:13:16;100775;;;21.90;57.34
70198;BME280;57582;-34.876;138.628;2023-04-27T01:16:17;100778;;;21.90;57.92
70198;BME280;57582;-34.876;138.628;2023-04-27T01:19:16;100773;;;22.16;56.56
70198;BME280;57582;-34.876;138.628;2023-04-27T01:22:16;100766;;;22.15;56.72
70198;BME280;57582;-34.876;138.628;2023-04-27T01:25:16;100764;;;22.38;56.03
70198;BME280;57582;-34.876;138.628;2023-04-27T01:28:16;100764;;;22.40;55.94
70198;BME280;57582;-34.876;138.628;2023-04-27T01:31:16;100759;;;22.30;56.00
70198;BME280;57582;-34.876;138.628;2023-04-27T01:34:16;100762;;;22.59;56.18
70198;BME280;57582;-34.876;138.628;2023-04-27T01:37:16;100764;;;22.83;53.95
70198;BME280;57582;-34.876;138.628;2023-04-27T01:40:16;100773;;;22.62;51.56
70198;BME280;57582;-34.876;138.628;2023-04-27T01:43:16;100769;;;22.73;51.34
70198;BME280;57582;-34.876;138.628;2023-04-27T01:46:16;100775;;;22.66;49.95
70198;BME280;57582;-34.876;138.628;2023-04-27T01:49:17;100775;;;22.66;51.02
70198;BME280;57582;-34.876;138.628;2023-04-27T01:52:17;100768;;;22.76;51.74
70198;BME280;57582;-34.876;138.628;2023-04-27T01:55:16;100767;;;22.88;50.12
70198;BME280;57582;-34.876;138.628;2023-04-27T01:58:16;100761;;;22.91;48.50
70198;BME280;57582;-34.876;138.628;2023-04-27T02:01:17;100746;;;23.04;47.29
70198;BME280;57582;-34.876;138.628;2023-04-27T02:04:17;100752;;;22.99;46.34
70198;BME280;57582;-34.876;138.628;2023-04-27T02:07:16;100755;;;23.02;45.71
70198;BME280;57582;-34.876;138.628;2023-04-27T02:10:16;100753;;;22.81;45.15
70198;BME280;57582;-34.876;138.628;2023-04-27T02:13:17;100741;;;23.00;45.78
70198;BME280;57582;-34.876;138.628;2023-04-27T02:16:17;100745;;;22.66;47.39
70198;BME280;57582;-34.876;138.628;2023-04-27T02:19:16;100742;;;22.80;45.79
70198;BME280;57582;-34.876;138.628;2023-04-27T02:22:16;100731;;;22.61;43.95
70198;BME280;57582;-34.876;138.628;2023-04-27T02:25:17;100735;;;22.95;45.88
70198;BME280;57582;-34.876;138.628;2023-04-27T02:28:17;100727;;;23.20;43.94
70198;BME280;57582;-34.876;138.628;2023-04-27T02:31:17;100725;;;23.49;42.88
70198;BME280;57582;-34.876;138.628;2023-04-27T02:34:16;100724;;;23.54;43.20
70198;BME280;57582;-34.876;138.628;2023-04-27T02:37:17;100716;;;23.54;42.94
70198;BME280;57582;-34.876;138.628;2023-04-27T02:40:17;100711;;;23.34;43.86
70198;BME280;57582;-34.876;138.628;2023-04-27T02:43:16;100702;;;23.60;43.77
70198;BME280;57582;-34.876;138.628;2023-04-27T02:46:16;100700;;;23.79;44.42
70198;BME280;57582;-34.876;138.628;2023-04-27T02:49:17;100698;;;24.03;44.45
70198;BME280;57582;-34.876;138.628;2023-04-27T02:52:17;100690;;;24.30;44.69
70198;BME280;57582;-34.876;138.628;2023-04-27T02:55:16;100682;;;24.36;43.95
70198;BME280;57582;-34.876;138.628;2023-04-27T02:58:16;100679;;;24.36;44.75
70198;BME280;57582;-34.876;138.628;2023-04-27T03:01:17;100672;;;24.37;44.95
70198;BME280;57582;-34.876;138.628;2023-04-27T03:04:17;100668;;;24.57;44.79
70198;BME280;57582;-34.876;138.628;2023-04-27T03:07:16;100660;;;24.38;45.23
70198;BME280;57582;-34.876;138.628;2023-04-27T03:10:16;100668;;;24.41;45.50
70198;BME280;57582;-34.876;138.628;2023-04-27T03:13:17;100663;;;24.35;44.82
70198;BME280;57582;-34.876;138.628;2023-04-27T03:16:17;100654;;;24.18;46.07
70198;BME280;57582;-34.876;138.628;2023-04-27T03:19:16;100655;;;24.07;46.22
70198;BME280;57582;-34.876;138.628;2023-04-27T03:22:17;100653;;;23.96;47.28
70198;BME280;57582;-34.876;138.628;2023-04-27T03:25:17;100654;;;24.04;47.22
70198;BME280;57582;-34.876;138.628;2023-04-27T03:28:17;100654;;;24.13;46.54
70198;BME280;57582;-34.876;138.628;2023-04-27T03:31:16;100644;;;24.15;47.34
70198;BME280;57582;-34.876;138.628;2023-04-27T03:34:16;100639;;;23.93;46.77
70198;BME280;57582;-34.876;138.628;2023-04-27T03:37:17;100637;;;23.72;47.83
70198;BME280;57582;-34.876;138.628;2023-04-27T03:40:17;100631;;;23.79;47.41
70198;BME280;57582;-34.876;138.628;2023-04-27T03:43:17;100628;;;23.69;47.78
70198;BME280;57582;-34.876;138.628;2023-04-27T03:46:16;100637;;;23.92;47.52
70198;BME280;57582;-34.876;138.628;2023-04-27T03:49:17;100625;;;24.22;46.88
70198;BME280;57582;-34.876;138.628;2023-04-27T03:52:17;100632;;;24.44;45.96
70198;BME280;57582;-34.876;138.628;2023-04-27T03:55:17;100631;;;24.09;45.26
70198;BME280;57582;-34.876;138.628;2023-04-27T03:58:16;100621;;;24.21;46.24
70198;BME280;57582;-34.876;138.628;2023-04-27T04:01:17;100617;;;24.22;45.21
70198;BME280;57582;-34.876;138.628;2023-04-27T04:04:17;100616;;;24.31;45.34
70198;BME280;57582;-34.876;138.628;2023-04-27T04:07:16;100617;;;24.40;45.01
70198;BME280;57582;-34.876;138.628;2023-04-27T04:10:17;100614;;;24.70;44.92
70198;BME280;57582;-34.876;138.628;2023-04-27T04:13:17;100604;;;24.91;44.17
70198;BME280;57582;-34.876;138.628;2023-04-27T04:16:17;100613;;;24.80;43.89
70198;BME280;57582;-34.876;138.628;2023-04-27T04:19:16;100615;;;24.74;44.38
70198;BME280;57582;-34.876;138.628;2023-04-27T04:22:17;100621;;;24.73;44.23
70198;BME280;57582;-34.876;138.628;2023-04-27T04:25:17;100609;;;24.66;44.39
70198;BME280;57582;-34.876;138.628;2023-04-27T04:28:17;100616;;;24.57;43.91
70198;BME280;57582;-34.876;138.628;2023-04-27T04:31:16;100612;;;24.29;44.93
70198;BME280;57582;-34.876;138.628;2023-04-27T04:34:17;100612;;;24.14;45.83
70198;BME280;57582;-34.876;138.628;2023-04-27T04:37:17;100614;;;24.35;45.91
70198;BME280;57582;-34.876;138.628;2023-04-27T04:40:17;100613;;;24.51;44.91
70198;BME280;57582;-34.876;138.628;2023-04-27T04:43:17;100613;;;24.65;44.04
70198;BME280;57582;-34.876;138.628;2023-04-27T04:46:17;100614;;;24.75;44.42
70198;BME280;57582;-34.876;138.628;2023-04-27T04:49:18;100620;;;24.89;43.75
70198;BME280;57582;-34.876;138.628;2023-04-27T04:52:17;100615;;;24.76;43.67
70198;BME280;57582;-34.876;138.628;2023-04-27T04:55:17;100622;;;24.70;44.01
70198;BME280;57582;-34.876;138.628;2023-04-27T04:58:17;100609;;;24.42;44.06
70198;BME280;57582;-34.876;138.628;2023-04-27T05:01:17;100624;;;24.38;45.52
70198;BME280;57582;-34.876;138.628;2023-04-27T05:04:17;100616;;;24.37;44.80
70198;BME280;57582;-34.876;138.628;2023-04-27T05:07:17;100628;;;24.61;44.95
70198;BME280;57582;-34.876;138.628;2023-04-27T05:10:17;100622;;;24.60;44.77
70198;BME280;57582;-34.876;138.628;2023-04-27T05:13:17;100633;;;24.52;44.72
70198;BME280;57582;-34.876;138.628;2023-04-27T05:16:17;100633;;;24.62;44.94
70198;BME280;57582;-34.876;138.628;2023-04-27T05:19:17;100636;;;24.44;45.98
70198;BME280;57582;-34.876;138.628;2023-04-27T05:22:17;100640;;;24.44;45.50
70198;BME280;57582;-34.876;138.628;2023-04-27T05:25:17;100649;;;24.36;46.24
70198;BME280;57582;-34.876;138.628;2023-04-27T05:28:17;100648;;;24.19;46.62
70198;BME280;57582;-34.876;138.628;2023-04-27T05:31:17;100654;;;24.16;46.81
70198;BME280;57582;-34.876;138.628;2023-04-27T05:34:17;100659;;;24.09;46.79
70198;BME280;57582;-34.876;138.628;2023-04-27T05:37:17;100657;;;23.91;47.32
70198;BME280;57582;-34.876;138.628;2023-04-27T05:40:17;100653;;;23.69;47.88
70198;BME280;57582;-34.876;138.628;2023-04-27T05:43:17;100659;;;23.82;48.78
70198;BME280;57582;-34.876;138.628;2023-04-27T05:46:17;100666;;;23.50;49.05
70198;BME280;57582;-34.876;138.628;2023-04-27T05:49:17;100668;;;23.16;50.15
70198;BME280;57582;-34.876;138.628;2023-04-27T05:52:18;100664;;;23.20;50.64
70198;BME280;57582;-34.876;138.628;2023-04-27T05:55:17;100671;;;23.20;50.62
70198;BME280;57582;-34.876;138.628;2023-04-27T05:58:17;100675;;;23.24;50.64
70198;BME280;57582;-34.876;138.628;2023-04-27T06:01:17;100666;;;23.48;50.93
70198;BME280;57582;-34.876;138.628;2023-04-27T06:04:17;100673;;;23.66;51.25
70198;BME280;57582;-34.876;138.628;2023-04-27T06:07:17;100676;;;23.73;51.13
70198;BME280;57582;-34.876;138.628;2023-04-27T06:10:17;100673;;;23.36;51.55
70198;BME280;57582;-34.876;138.628;2023-04-27T06:13:17;100679;;;23.26;51.95
70198;BME280;57582;-34.876;138.628;2023-04-27T06:16:17;100684;;;23.24;52.58
70198;BME280;57582;-34.876;138.628;2023-04-27T06:19:17;100698;;;23.03;52.28
70198;BME280;57582;-34.876;138.628;2023-04-27T06:22:17;100699;;;23.07;52.42
70198;BME280;57582;-34.876;138.628;2023-04-27T06:25:17;100698;;;23.06;52.80
70198;BME280;57582;-34.876;138.628;2023-04-27T06:28:17;100699;;;22.97;52.35
70198;BME280;57582;-34.876;138.628;2023-04-27T06:31:17;100704;;;22.96;52.33
70198;BME280;57582;-34.876;138.628;2023-04-27T06:34:17;100698;;;22.89;51.98
70198;BME280;57582;-34.876;138.628;2023-04-27T06:37:17;100688;;;22.98;53.36
70198;BME280;57582;-34.876;138.628;2023-04-27T06:40:17;100689;;;23.26;51.81
70198;BME280;57582;-34.876;138.628;2023-04-27T06:43:17;100691;;;23.52;49.31
70198;BME280;57582;-34.876;138.628;2023-04-27T06:46:17;100693;;;23.63;48.83
70198;BME280;57582;-34.876;138.628;2023-04-27T06:49:17;100689;;;23.76;48.59
70198;BME280;57582;-34.876;138.628;2023-04-27T06:52:17;100693;;;23.83;47.82
70198;BME280;57582;-34.876;138.628;2023-04-27T06:55:17;100690;;;24.01;46.66
70198;BME280;57582;-34.876;138.628;2023-04-27T06:58:17;100693;;;24.13;46.48
70198;BME280;57582;-34.876;138.628;2023-04-27T07:01:17;100693;;;24.15;46.06
70198;BME280;57582;-34.876;138.628;2023-04-27T07:04:17;100691;;;24.12;45.62
70198;BME280;57582;-34.876;138.628;2023-04-27T07:07:17;100682;;;23.71;46.14
70198;BME280;57582;-34.876;138.628;2023-04-27T07:10:17;100684;;;23.53;46.69
70198;BME280;57582;-34.876;138.628;2023-04-27T07:13:17;100681;;;23.11;47.57
70198;BME280;57582;-34.876;138.628;2023-04-27T07:16:18;100686;;;23.02;47.75
70198;BME280;57582;-34.876;138.628;2023-04-27T07:19:17;100682;;;22.96;48.30
70198;BME280;57582;-34.876;138.628;2023-04-27T07:22:17;100685;;;22.80;48.73
70198;BME280;57582;-34.876;138.628;2023-04-27T07:25:18;100686;;;22.87;48.69
70198;BME280;57582;-34.876;138.628;2023-04-27T07:28:17;100681;;;23.06;48.63
70198;BME280;57582;-34.876;138.628;2023-04-27T07:31:17;100677;;;23.13;48.13
70198;BME280;57582;-34.876;138.628;2023-04-27T07:34:17;100680;;;23.05;49.01
70198;BME280;57582;-34.876;138.628;2023-04-27T07:37:17;100675;;;22.89;49.33
70198;BME280;57582;-34.876;138.628;2023-04-27T07:40:18;100675;;;22.87;49.49
70198;BME280;57582;-34.876;138.628;2023-04-27T07:43:17;100676;;;22.96;49.22
70198;BME280;57582;-34.876;138.628;2023-04-27T07:46:17;100693;;;22.98;49.35
70198;BME280;57582;-34.876;138.628;2023-04-27T07:49:17;100677;;;22.83;49.38
70198;BME280;57582;-34.876;138.628;2023-04-27T07:52:17;100682;;;22.78;49.79
70198;BME280;57582;-34.876;138.628;2023-04-27T07:55:17;100680;;;22.95;49.44
70198;BME280;57582;-34.876;138.628;2023-04-27T07:58:17;100680;;;23.06;49.32
70198;BME280;57582;-34.876;138.628;2023-04-27T08:01:17;100687;;;23.10;49.40
70198;BME280;57582;-34.876;138.628;2023-04-27T08:04:17;100683;;;23.17;49.35
70198;BME280;57582;-34.876;138.628;2023-04-27T08:07:17;100682;;;23.17;49.28
70198;BME280;57582;-34.876;138.628;2023-04-27T08:10:17;100684;;;23.24;49.27
70198;BME280;57582;-34.876;138.628;2023-04-27T08:13:17;100691;;;23.12;49.56
70198;BME280;57582;-34.876;138.628;2023-04-27T08:16:17;100685;;;23.00;49.94
70198;BME280;57582;-34.876;138.628;2023-04-27T08:19:17;100688;;;23.05;49.73
70198;BME280;57582;-34.876;138.628;2023-04-27T08:22:17;100690;;;23.08;49.79
70198;BME280;57582;-34.876;138.628;2023-04-27T08:25:17;100685;;;22.98;50.11
70198;BME280;57582;-34.876;138.628;2023-04-27T08:28:17;100688;;;22.95;50.42
70198;BME280;57582;-34.876;138.628;2023-04-27T08:31:17;100685;;;23.00;50.38
70198;BME280;57582;-34.876;138.628;2023-04-27T08:34:17;100670;;;22.62;50.93
70198;BME280;57582;-34.876;138.628;2023-04-27T08:37:18;100693;;;22.90;50.67
70198;BME280;57582;-34.876;138.628;2023-04-27T08:40:18;100689;;;22.94;50.74
70198;BME280;57582;-34.876;138.628;2023-04-27T08:43:17;100687;;;22.90;50.81
70198;BME280;57582;-34.876;138.628;2023-04-27T08:46:18;100698;;;23.03;50.66
70198;BME280;57582;-34.876;138.628;2023-04-27T08:49:17;100692;;;23.13;50.55
70198;BME280;57582;-34.876;138.628;2023-04-27T08:52:17;100690;;;23.20;50.36
70198;BME280;57582;-34.876;138.628;2023-04-27T08:55:17;100707;;;23.28;50.44
70198;BME280;57582;-34.876;138.628;2023-04-27T08:58:17;100702;;;23.42;50.26
70198;BME280;57582;-34.876;138.628;2023-04-27T09:01:17;100704;;;23.53;50.00
70198;BME280;57582;-34.876;138.628;2023-04-27T09:04:17;100706;;;23.64;49.82
70198;BME280;57582;-34.876;138.628;2023-04-27T09:07:17;100712;;;23.78;49.52
70198;BME280;57582;-34.876;138.628;2023-04-27T09:10:17;100710;;;23.80;49.50
70198;BME280;57582;-34.876;138.628;2023-04-27T09:13:18;100722;;;23.72;49.69
70198;BME280;57582;-34.876;138.628;2023-04-27T09:16:21;100718;;;23.78;49.77
70198;BME280;57582;-34.876;138.628;2023-04-27T09:19:22;100725;;;23.79;49.75
70198;BME280;57582;-34.876;138.628;2023-04-27T09:22:17;100726;;;23.78;49.96
70198;BME280;57582;-34.876;138.628;2023-04-27T09:25:25;100720;;;23.76;50.16
70198;BME280;57582;-34.876;138.628;2023-04-27T09:28:18;100732;;;23.57;50.88
70198;BME280;57582;-34.876;138.628;2023-04-27T09:31:17;100724;;;23.58;51.16
70198;BME280;57582;-34.876;138.628;2023-04-27T09:34:17;100728;;;23.39;52.04
70198;BME280;57582;-34.876;138.628;2023-04-27T09:37:17;100726;;;23.28;52.51
70198;BME280;57582;-34.876;138.628;2023-04-27T09:40:19;100726;;;23.26;52.84
70198;BME280;57582;-34.876;138.628;2023-04-27T09:43:17;100728;;;23.24;53.07
70198;BME280;57582;-34.876;138.628;2023-04-27T09:46:17;100733;;;23.11;53.54
70198;BME280;57582;-34.876;138.628;2023-04-27T09:49:17;100738;;;22.99;53.81
70198;BME280;57582;-34.876;138.628;2023-04-27T09:52:17;100737;;;23.00;53.83
70198;BME280;57582;-34.876;138.628;2023-04-27T09:55:20;100731;;;23.01;53.81
70198;BME280;57582;-34.876;138.628;2023-04-27T10:01:21;100741;;;22.83;54.16
70198;BME280;57582;-34.876;138.628;2023-04-27T10:07:17;100745;;;22.48;54.94
70198;BME280;57582;-34.876;138.628;2023-04-27T10:10:17;100745;;;22.37;55.23
70198;BME280;57582;-34.876;138.628;2023-04-27T10:13:19;100744;;;22.23;55.52
70198;BME280;57582;-34.876;138.628;2023-04-27T10:16:18;100747;;;22.03;55.47
70198;BME280;57582;-34.876;138.628;2023-04-27T10:19:17;100749;;;22.07;55.42
70198;BME280;57582;-34.876;138.628;2023-04-27T10:22:17;100748;;;22.00;55.33
70198;BME280;57582;-34.876;138.628;2023-04-27T10:25:19;100753;;;22.03;55.19
70198;BME280;57582;-34.876;138.628;2023-04-27T10:28:17;100757;;;22.06;55.01
70198;BME280;57582;-34.876;138.628;2023-04-27T10:31:17;100759;;;22.00;55.12
70198;BME280;57582;-34.876;138.628;2023-04-27T10:34:17;100761;;;22.06;54.94
70198;BME280;57582;-34.876;138.628;2023-04-27T10:37:17;100764;;;22.03;54.61
70198;BME280;57582;-34.876;138.628;2023-04-27T10:40:17;100764;;;22.14;54.30
70198;BME280;57582;-34.876;138.628;2023-04-27T10:43:17;100758;;;22.20;54.14
70198;BME280;57582;-34.876;138.628;2023-04-27T10:46:17;100766;;;22.18;54.11
70198;BME280;57582;-34.876;138.628;2023-04-27T10:49:18;100766;;;22.06;54.51
70198;BME280;57582;-34.876;138.628;2023-04-27T10:52:17;100769;;;22.01;54.76
70198;BME280;57582;-34.876;138.628;2023-04-27T10:55:18;100770;;;22.07;54.92
70198;BME280;57582;-34.876;138.628;2023-04-27T10:58:21;100770;;;22.17;54.89
70198;BME280;57582;-34.876;138.628;2023-04-27T11:01:26;100771;;;22.21;54.91
70198;BME280;57582;-34.876;138.628;2023-04-27T11:04:18;100778;;;22.19;55.41
70198;BME280;57582;-34.876;138.628;2023-04-27T11:07:25;100766;;;22.23;55.52
70198;BME280;57582;-34.876;138.628;2023-04-27T11:10:17;100784;;;21.88;56.72
70198;BME280;57582;-34.876;138.628;2023-04-27T11:13:19;100782;;;22.01;56.70
70198;BME280;57582;-34.876;138.628;2023-04-27T11:16:18;100778;;;22.14;56.46
70198;BME280;57582;-34.876;138.628;2023-04-27T11:19:17;100780;;;22.25;56.12
70198;BME280;57582;-34.876;138.628;2023-04-27T11:22:17;100779;;;22.31;56.29
70198;BME280;57582;-34.876;138.628;2023-04-27T11:25:25;100775;;;22.40;56.01
70198;BME280;57582;-34.876;138.628;2023-04-27T11:28:19;100782;;;22.52;55.69
70198;BME280;57582;-34.876;138.628;2023-04-27T11:31:17;100783;;;22.51;55.68
70198;BME280;57582;-34.876;138.628;2023-04-27T11:34:19;100791;;;22.48;55.69
70198;BME280;57582;-34.876;138.628;2023-04-27T11:37:21;100794;;;22.51;55.60
70198;BME280;57582;-34.876;138.628;2023-04-27T11:40:18;100792;;;22.58;55.46
70198;BME280;57582;-34.876;138.628;2023-04-27T11:43:17;100788;;;22.67;55.35
70198;BME280;57582;-34.876;138.628;2023-04-27T11:46:19;100792;;;22.77;55.10
70198;BME280;57582;-34.876;138.628;2023-04-27T11:49:18;100797;;;22.68;55.33
70198;BME280;57582;-34.876;138.628;2023-04-27T11:52:17;100799;;;22.61;55.60
70198;BME280;57582;-34.876;138.628;2023-04-27T11:55:19;100800;;;22.53;55.90
70198;BME280;57582;-34.876;138.628;2023-04-27T11:58:17;100796;;;22.51;55.99
70198;BME280;57582;-34.876;138.628;2023-04-27T12:01:18;100799;;;22.51;55.91
70198;BME280;57582;-34.876;138.628;2023-04-27T12:04:18;100792;;;22.49;56.10
70198;BME280;57582;-34.876;138.628;2023-04-27T12:07:17;100793;;;22.49;56.18
70198;BME280;57582;-34.876;138.628;2023-04-27T12:10:17;100799;;;22.48;56.19
70198;BME280;57582;-34.876;138.628;2023-04-27T12:13:18;100800;;;22.44;56.39
70198;BME280;57582;-34.876;138.628;2023-04-27T12:16:18;100800;;;22.42;56.49
70198;BME280;57582;-34.876;138.628;2023-04-27T12:19:17;100803;;;22.40;56.73
70198;BME280;57582;-34.876;138.628;2023-04-27T12:22:17;100804;;;22.34;56.91
70198;BME280;57582;-34.876;138.628;2023-04-27T12:25:18;100809;;;22.27;57.17
70198;BME280;57582;-34.876;138.628;2023-04-27T12:28:18;100811;;;22.10;57.62
70198;BME280;57582;-34.876;138.628;2023-04-27T12:31:17;100816;;;22.08;57.53
70198;BME280;57582;-34.876;138.628;2023-04-27T12:34:17;100812;;;22.07;57.44
70198;BME280;57582;-34.876;138.628;2023-04-27T12:37:18;100817;;;22.05;57.68
70198;BME280;57582;-34.876;138.628;2023-04-27T12:40:18;100810;;;22.09;57.52
70198;BME280;57582;-34.876;138.628;2023-04-27T12:43:17;100812;;;22.13;57.52
70198;BME280;57582;-34.876;138.628;2023-04-27T12:46:18;100824;;;22.20;57.34
70198;BME280;57582;-34.876;138.628;2023-04-27T12:49:18;100810;;;22.17;57.21
70198;BME280;57582;-34.876;138.628;2023-04-27T12:52:18;100820;;;21.97;57.29
70198;BME280;57582;-34.876;138.628;2023-04-27T12:55:17;100821;;;21.96;57.23
70198;BME280;57582;-34.876;138.628;2023-04-27T12:58:17;100818;;;21.93;57.32
70198;BME280;57582;-34.876;138.628;2023-04-27T13:01:18;100819;;;21.97;57.13
70198;BME280;57582;-34.876;138.628;2023-04-27T13:04:18;100811;;;21.80;57.71
70198;BME280;57582;-34.876;138.628;2023-04-27T13:07:17;100815;;;21.81;57.72
70198;BME280;57582;-34.876;138.628;2023-04-27T13:10:17;100815;;;21.65;58.26
70198;BME280;57582;-34.876;138.628;2023-04-27T13:13:18;100817;;;21.53;58.69
70198;BME280;57582;-34.876;138.628;2023-04-27T13:16:18;100809;;;21.51;58.75
70198;BME280;57582;-34.876;138.628;2023-04-27T13:19:17;100818;;;21.54;58.44
70198;BME280;57582;-34.876;138.628;2023-04-27T13:22:17;100788;;;21.35;58.55
70198;BME280;57582;-34.876;138.628;2023-04-27T13:25:18;100808;;;21.34;58.96
70198;BME280;57582;-34.876;138.628;2023-04-27T13:28:18;100810;;;21.24;59.05
70198;BME280;57582;-34.876;138.628;2023-04-27T13:31:17;100811;;;20.95;59.58
70198;BME280;57582;-34.876;138.628;2023-04-27T13:34:17;100804;;;20.64;60.24
70198;BME280;57582;-34.876;138.628;2023-04-27T13:37:18;100818;;;20.59;60.32
70198;BME280;57582;-34.876;138.628;2023-04-27T13:40:19;100807;;;20.38;60.64
70198;BME280;57582;-34.876;138.628;2023-04-27T13:43:17;100800;;;20.05;61.06
70198;BME280;57582;-34.876;138.628;2023-04-27T13:46:17;100809;;;19.94;61.00
70198;BME280;57582;-34.876;138.628;2023-04-27T13:49:18;100804;;;19.88;60.25
70198;BME280;57582;-34.876;138.628;2023-04-27T13:52:18;100800;;;19.76;60.72
70198;BME280;57582;-34.876;138.628;2023-04-27T13:55:17;100807;;;19.69;60.50
70198;BME280;57582;-34.876;138.628;2023-04-27T13:58:17;100801;;;19.61;60.76
70198;BME280;57582;-34.876;138.628;2023-04-27T14:01:18;100799;;;19.60;61.08
70198;BME280;57582;-34.876;138.628;2023-04-27T14:04:18;100805;;;19.71;61.12
70198;BME280;57582;-34.876;138.628;2023-04-27T14:07:18;100797;;;19.67;61.15
70198;BME280;57582;-34.876;138.628;2023-04-27T14:10:18;100786;;;19.69;61.25
70198;BME280;57582;-34.876;138.628;2023-04-27T14:13:18;100792;;;19.59;62.54
70198;BME280;57582;-34.876;138.628;2023-04-27T14:16:18;100792;;;19.71;62.43
70198;BME280;57582;-34.876;138.628;2023-04-27T14:19:17;100790;;;19.80;62.58
70198;BME280;57582;-34.876;138.628;2023-04-27T14:22:17;100790;;;19.83;62.40
70198;BME280;57582;-34.876;138.628;2023-04-27T14:25:18;100793;;;19.91;61.97
70198;BME280;57582;-34.876;138.628;2023-04-27T14:28:18;100794;;;19.96;61.48
70198;BME280;57582;-34.876;138.628;2023-04-27T14:31:18;100784;;;19.97;61.70
70198;BME280;57582;-34.876;138.628;2023-04-27T14:34:18;100793;;;20.06;60.66
70198;BME280;57582;-34.876;138.628;2023-04-27T14:37:18;100791;;;19.82;61.23
70198;BME280;57582;-34.876;138.628;2023-04-27T14:40:18;100783;;;19.70;62.19
70198;BME280;57582;-34.876;138.628;2023-04-27T14:43:18;100790;;;20.04;61.22
70198;BME280;57582;-34.876;138.628;2023-04-27T14:46:18;100786;;;19.95;61.87
70198;BME280;57582;-34.876;138.628;2023-04-27T14:49:18;100781;;;20.19;60.96
70198;BME280;57582;-34.876;138.628;2023-04-27T14:52:18;100773;;;20.35;60.28
70198;BME280;57582;-34.876;138.628;2023-04-27T14:55:18;100779;;;20.44;59.89
70198;BME280;57582;-34.876;138.628;2023-04-27T14:58:18;100783;;;20.45;59.64
70198;BME280;57582;-34.876;138.628;2023-04-27T15:01:18;100777;;;20.36;60.06
70198;BME280;57582;-34.876;138.628;2023-04-27T15:04:18;100773;;;20.34;60.47
70198;BME280;57582;-34.876;138.628;2023-04-27T15:07:18;100778;;;20.40;59.42
70198;BME280;57582;-34.876;138.628;2023-04-27T15:10:18;100786;;;20.56;58.84
70198;BME280;57582;-34.876;138.628;2023-04-27T15:13:18;100783;;;20.65;58.66
70198;BME280;57582;-34.876;138.628;2023-04-27T15:16:18;100786;;;20.58;58.49
70198;BME280;57582;-34.876;138.628;2023-04-27T15:19:18;100783;;;20.78;58.25
70198;BME280;57582;-34.876;138.628;2023-04-27T15:22:18;100771;;;20.92;57.58
70198;BME280;57582;-34.876;138.628;2023-04-27T15:25:18;100776;;;20.75;58.20
70198;BME280;57582;-34.876;138.628;2023-04-27T15:28:18;100766;;;20.88;57.95
70198;BME280;57582;-34.876;138.628;2023-04-27T15:31:18;100766;;;20.99;57.59
70198;BME280;57582;-34.876;138.628;2023-04-27T15:34:18;100759;;;21.16;57.13
70198;BME280;57582;-34.876;138.628;2023-04-27T15:37:18;100761;;;21.30;56.52
70198;BME280;57582;-34.876;138.628;2023-04-27T15:40:18;100759;;;21.23;56.58
70198;BME280;57582;-34.876;138.628;2023-04-27T15:43:18;100765;;;21.18;56.80
70198;BME280;57582;-34.876;138.628;2023-04-27T15:46:18;100763;;;21.27;56.59